Latest Coastal Weather Observations for Cairns

IDQ60701

Issued at 6:21 pm EST Wednesday 22 February 2017 (issued every 10 minutes, with the page automatically refreshed every 10 minutes)

About coastal observations | Map of coastal stations | Coastal observations for QLD | Marine services | Other Formats
Station Details ID: 031011 Name: CAIRNS AERO Lat: -16.87 Lon: 145.75 Height: 2.22 m
Data from the previous 72 hours. | See also: Recent months at Cairns
Date/Time
EST
Temp
°C
Wind Pressure Rain since
9am
mm
Weather Cloud Vis
km
Sea
Height
m
Swell
Dir  Spd
kts
Gust
kts
hPa Trend Height
m
Period
s
Dir
22/06:00pm 29.5 SE 12 15 1010.3 F 0.0 - Mostly clear 10 - - - -
22/05:30pm 30.1 SE 10 14 1010.2 - 0.0 - Mostly clear 10 - - - -
22/05:00pm 30.1 SE 13 16 1009.8 - 0.0 - Mostly clear 10 - - - -
22/04:30pm 30.4 SE 10 15 1009.7 - 0.0 - Mostly clear 10 - - - -
22/04:00pm 31.7 SE 10 14 1009.6 - 0.0 - Mostly clear 10 - - - -
22/03:30pm 30.9 ESE 9 14 1009.9 - 0.0 - Mostly clear 10 - - - -
22/03:00pm 31.5 ENE 11 14 1010.1 F 0.0 - Partly cloudy 10 - - - -
22/02:30pm 31.2 ENE 10 14 1010.6 - 0.0 - Mostly clear 10 - - - -
22/02:00pm 31.6 ENE 11 14 1010.7 - 0.0 - Mostly clear 10 - - - -
22/01:30pm 31.0 ENE 9 11 1011.2 - 0.0 - Mostly clear 10 - - - -
22/01:00pm 30.4 ENE 10 14 1011.6 - 0.0 - Mostly clear 10 - - - -
22/12:30pm 31.1 NE 10 14 1011.9 - 0.0 - Partly cloudy 10 - - - -
22/12:00pm 31.3 ENE 8 14 1012.3 R 0.0 - Mostly clear 10 - - - -
22/11:30am 31.2 E 6 11 1012.4 - 0.0 - Partly cloudy 10 - - - -
22/11:00am 30.3 SSE 6 10 1012.5 - 0.0 - Partly cloudy 10 - - - -
22/10:30am 29.7 S 6 9 1012.7 - 0.0 - Mostly clear 10 - - - -
22/10:00am 28.7 S 7 10 1012.8 - 0.0 - Mostly clear 10 - - - -
22/09:30am 28.4 SSE 6 8 1012.9 - 0.0 - Mostly clear 10 - - - -
22/09:00am 27.4 SE 5 7 1012.9 F 24.4 - Mostly cloudy 10 - - - -
22/08:30am 26.5 SE 8 9 1013.0 - 24.4 - Mostly clear 10 - - - -
22/08:00am 26.1 ESE 4 7 1012.8 - 24.4 - Mostly clear 10 - - - -
22/07:30am 25.1 CALM 0 4 1012.5 - 24.4 - Mostly clear 10 - - - -
22/07:00am 24.9 SW 2 4 1012.2 - 24.4 - Mostly clear 10 - - - -
22/06:30am 24.5 SSE 5 10 1012.2 - 24.4 - Mostly clear 10 - - - -
22/06:00am 23.9 CALM 0 0 1012.1 R 24.4 Recent precip. Partly cloudy 10 - - - -
22/05:30am 23.9 W 3 4 1011.7 - 24.4 - Mostly clear 10 - - - -
22/05:00am 24.0 S 5 9 1011.4 - 24.2 - Mostly clear 10 - - - -
22/04:30am 23.9 SW 3 5 1011.1 - 24.2 - Mostly clear 10 - - - -
22/04:00am 24.1 S 5 8 1011.1 - 24.2 - Mostly clear 10 - - - -
22/03:30am 23.5 WSW 3 4 1011.2 - 24.2 - Mostly clear 10 - - - -
22/03:00am 23.5 CALM 0 4 1011.5 F 24.2 Showers Cloudy 10 - - - -
22/02:30am 23.3 SW 3 4 1011.9 - 24.2 Rain Mostly clear 10 - - - -
22/02:00am 24.0 NW 1 4 1012.0 - 23.6 - Mostly clear 10 - - - -
22/01:30am 24.1 W 4 6 1012.4 - 23.6 - Mostly clear 10 - - - -
22/01:06am 23.7 S 7 9 1012.8 - 23.6 Showers Mostly clear 9 - - - -
22/01:00am 23.7 S 7 10 1013.1 - 23.4 - Mostly clear 6 - - - -
22/12:51am 23.4 S 9 12 1013.3 - 22.8 Showers Mostly clear 5 - - - -
22/12:30am 24.1 SE 10 14 1013.7 - 15.4 Showers Mostly clear 3 - - - -
22/12:17am 24.5 ENE 7 15 1014.0 - 4.4 Showers Mostly clear 3 - - - -
22/12:00am 24.7 SSE 7 10 1013.6 R 2.0 Showers Cloudy 10 - - - -
 
Date/Time
EST
Temp
°C
Wind Pressure Rain since
9am
mm
Weather Cloud Vis
km
Sea
Height
m
Swell
Dir  Spd
kts
Gust
kts
hPa Trend Height
m
Period
s
Dir
21/11:30pm 24.7 SE 9 10 1013.8 - 2.0 - Mostly clear 10 - - - -
21/11:00pm 24.5 SE 10 12 1013.8 - 2.0 - Mostly clear 10 - - - -
21/10:30pm 24.6 SE 7 10 1013.8 - 2.0 Rain Mostly clear 10 - - - -
21/10:00pm 24.6 NNE 4 7 1013.9 - 1.6 - Mostly clear 10 - - - -
21/09:30pm 24.3 SSE 12 19 1013.7 - 0.0 Showers Mostly clear 10 - - - -
21/09:00pm 25.3 S 10 17 1013.1 R 0.0 Showers Cloudy 10 - - - -
21/08:30pm 25.8 SSE 12 17 1013.4 - 0.0 - Mostly clear 10 - - - -
21/08:00pm 27.0 N 2 5 1013.1 - 0.0 - Mostly clear 10 - - - -
21/07:30pm 27.8 ESE 5 8 1012.5 - 0.0 - Mostly clear 10 - - - -
21/07:00pm 27.4 SSE 5 7 1012.0 - 0.0 - Mostly clear 10 - - - -
21/06:30pm 26.8 SSE 5 7 1011.5 - 0.0 - Mostly clear 10 - - - -
21/06:00pm 27.0 ENE 7 12 1011.1 R 0.0 Showers Cloudy 10 - - - -
21/05:30pm 28.7 ESE 8 11 1010.5 - 0.0 - Mostly clear 10 - - - -
21/05:00pm 29.9 ENE 8 11 1010.4 - 0.0 - Mostly clear 10 - - - -
21/04:30pm 29.9 ENE 8 10 1010.0 - 0.0 - Mostly clear 10 - - - -
21/04:00pm 30.1 NE 7 10 1009.8 - 0.0 - Mostly clear 10 - - - -
21/03:30pm 31.1 NNE 8 10 1010.0 - 0.0 - Mostly clear 10 - - - -
21/03:00pm 31.3 ENE 8 11 1009.9 F 0.0 - Mostly clear 10 - - - -
21/02:30pm 31.6 NNE 7 11 1010.1 - 0.0 - Mostly clear 10 - - - -
21/02:00pm 31.1 N 8 10 1010.7 - 0.0 - Mostly clear 10 - - - -
21/01:30pm 31.4 NNE 7 10 1011.3 - 0.0 - Mostly clear 10 - - - -
21/01:00pm 30.8 NNE 7 10 1011.5 - 0.0 - Mostly clear 10 - - - -
21/12:30pm 31.0 NNE 8 11 1011.7 - 0.0 - Mostly clear 10 - - - -
21/12:00pm 30.8 NNE 8 11 1012.2 R 0.0 - Mostly clear 10 - - - -
21/11:30am 30.8 NNE 8 11 1012.4 - 0.0 - Mostly clear 10 - - - -
21/11:00am 31.0 NE 7 9 1012.5 - 0.0 - Mostly clear 10 - - - -
21/10:30am 31.0 NNE 6 9 1012.5 - 0.0 - Mostly clear 10 - - - -
21/10:00am 30.8 NE 7 10 1012.8 - 0.0 - Mostly clear 10 - - - -
21/09:30am 30.1 ESE 2 5 1012.7 - 0.0 - Mostly clear 10 - - - -
21/09:00am 29.9 SE 5 7 1012.6 R 0.0 - Mostly clear 10 - - - -
21/08:30am 30.3 SSE 5 7 1012.3 - 0.0 - Mostly clear 10 - - - -
21/08:00am 29.5 CALM 0 0 1012.0 - 0.0 - Mostly clear 10 - - - -
21/07:30am 27.1 CALM 0 0 1011.7 - 0.0 - Mostly clear 10 - - - -
21/07:00am 25.6 CALM 0 0 1011.3 - 0.0 - Mostly clear 10 - - - -
21/06:30am 24.7 CALM 0 0 1010.8 - 0.0 - Partly cloudy 10 - - - -
21/06:00am 24.9 W 3 4 1010.5 R 0.0 - - 10 - - - -
21/05:30am 25.1 W 3 4 1010.1 - 0.0 - - 10 - - - -
21/05:00am 25.5 W 1 3 1009.8 - 0.0 - - 10 - - - -
21/04:30am 25.5 SSE 5 6 1009.4 - 0.0 - - 10 - - - -
21/04:00am 25.9 CALM 0 0 1009.4 - 0.0 - - 10 - - - -
21/03:30am 26.4 SW 3 5 1009.5 - 0.0 - - 10 - - - -
21/03:00am 26.2 W 5 7 1009.5 F 0.0 - - 10 - - - -
21/02:30am 26.2 CALM 0 4 1009.6 - 0.0 - Partly cloudy 10 - - - -
21/02:00am 26.6 CALM 0 0 1009.8 - 0.0 - Partly cloudy 10 - - - -
21/01:30am 26.9 W 4 5 1010.1 - 0.0 - Partly cloudy 10 - - - -
21/01:00am 26.9 WSW 2 5 1010.3 - 0.0 - Partly cloudy 10 - - - -
21/12:30am 27.0 WNW 5 6 1010.7 - 0.0 - Partly cloudy 10 - - - -
21/12:00am 27.3 WNW 5 5 1011.2 F 0.0 - Cloudy 10 - - - -
 
Date/Time
EST
Temp
°C
Wind Pressure Rain since
9am
mm
Weather Cloud Vis
km
Sea
Height
m
Swell
Dir  Spd
kts
Gust
kts
hPa Trend Height
m
Period
s
Dir
20/11:30pm 27.3 WNW 5 6 1011.6 - 0.0 - - 10 - - - -
20/11:00pm 27.3 WNW 4 5 1011.6 - 0.0 - - 10 - - - -
20/10:30pm 27.3 WNW 4 6 1011.5 - 0.0 - Mostly clear 10 - - - -
20/10:00pm 27.8 NNW 6 9 1011.6 - 0.0 - Mostly clear 10 - - - -
20/09:30pm 28.5 WNW 4 5 1011.6 - 0.0 - Mostly clear 10 - - - -
20/09:00pm 28.8 WNW 5 6 1011.4 R 0.0 - Cloudy 10 - - - -
20/08:30pm 29.1 NNE 4 5 1011.1 - 0.0 - Partly cloudy 10 - - - -
20/08:00pm 29.3 NNE 5 7 1010.5 - 0.0 - Partly cloudy 10 - - - -
20/07:30pm 29.3 NE 4 6 1010.1 - 0.0 - Partly cloudy 10 - - - -
20/07:00pm 29.2 NNE 5 6 1009.4 - 0.0 - Mostly clear 10 - - - -
20/06:30pm 29.3 NNE 5 6 1008.9 - 0.0 - Mostly clear 10 - - - -
20/06:00pm 29.7 NE 6 7 1008.8 R 0.0 - Mostly cloudy 10 - - - -
20/05:30pm 30.0 NE 7 10 1008.4 - 0.0 - Mostly clear 10 - - - -
20/05:00pm 30.9 NE 8 12 1008.1 - 0.0 - Mostly clear 10 - - - -
20/04:30pm 31.1 NE 8 12 1008.0 - 0.0 - Mostly clear 10 - - - -
20/04:00pm 31.0 NNE 8 12 1007.9 - 0.0 - Mostly clear 10 - - - -
20/03:30pm 31.1 NE 7 11 1007.8 - 0.0 - Mostly clear 10 - - - -
20/03:00pm 31.4 ENE 9 13 1008.0 R 0.0 - Mostly clear 10 - - - -
20/02:30pm 31.4 NE 8 11 1008.0 - 0.0 - Mostly clear 10 - - - -
20/02:00pm 31.5 NE 8 12 1008.4 - 0.0 - Mostly clear 10 - - - -
20/01:30pm 31.2 NNE 6 9 1008.6 - 0.0 - Mostly clear 10 - - - -
20/01:00pm 30.9 NNE 7 11 1009.0 - 0.0 - Mostly clear 10 - - - -
20/12:30pm 31.4 NE 7 12 1009.3 - 0.0 - Mostly clear 10 - - - -
20/12:00pm 31.7 NE 7 10 1009.6 S 0.0 - Mostly clear 10 - - - -
20/11:30am 31.3 NE 7 9 1010.0 - 0.0 - Mostly clear 10 - - - -
20/11:00am 31.4 ENE 6 9 1010.1 - 0.0 - Mostly clear 10 - - - -
20/10:30am 31.2 E 5 7 1010.3 - 0.0 - Mostly clear 10 - - - -
20/10:00am 30.4 ESE 5 7 1010.2 - 0.0 - Mostly clear 10 - - - -
20/09:30am 30.1 SE 5 8 1010.4 - 0.0 - Mostly clear 10 - - - -
20/09:00am 28.9 NNW 2 5 1010.4 R 0.0 - Mostly clear 10 - - - -
20/08:30am 27.6 SW 3 6 1010.0 - 0.0 - Mostly clear 10 - - - -
20/08:00am 27.2 WNW 3 5 1009.7 - 0.0 - Mostly clear 10 - - - -
20/07:30am 25.7 WNW 3 4 1009.3 - 0.0 - Mostly clear 10 - - - -
20/07:00am 25.3 SE 1 4 1008.8 - 0.0 - Mostly clear 10 - - - -
20/06:30am 24.6 CALM 0 0 1008.4 - 0.0 - Mostly clear 10 - - - -
20/06:00am 24.7 W 4 5 1008.3 R 0.0 - Cloudy 10 - - - -
20/05:30am 24.9 WSW 2 4 1007.9 - 0.0 - - 10 - - - -
20/05:00am 25.3 WSW 7 10 1007.8 - 0.0 - - 10 - - - -
20/04:30am 24.9 W 4 6 1007.6 - 0.0 - - 10 - - - -
20/04:00am 24.9 CALM 0 4 1007.2 - 0.0 - - 10 - - - -
20/03:30am 25.1 SW 3 5 1007.4 - 0.0 - - 10 - - - -
20/03:00am 25.8 WSW 6 9 1007.4 S 0.0 - Cloudy 10 - - - -
20/02:30am 25.8 W 6 9 1007.7 - 0.0 - Mostly clear 10 - - - -
20/02:00am 26.1 W 9 12 1008.0 - 0.0 - Mostly clear 10 - - - -
20/01:30am 26.2 W 6 8 1008.3 - 0.0 - Mostly clear 10 - - - -
20/01:00am 26.3 WSW 4 5 1008.4 - 0.0 - Mostly clear 10 - - - -
20/12:30am 26.0 WNW 4 5 1008.9 - 0.0 - Mostly clear 10 - - - -
20/12:00am 26.1 CALM 0 0 1009.0 F 0.0 - Mostly cloudy 10 - - - -
 
Date/Time
EST
Temp
°C
Wind Pressure Rain since
9am
mm
Weather Cloud Vis
km
Sea
Height
m
Swell
Dir  Spd
kts
Gust
kts
hPa Trend Height
m
Period
s
Dir
19/11:30pm 26.3 CALM 0 0 1009.3 - 0.0 - Mostly clear 10 - - - -
19/11:00pm 26.6 CALM 0 0 1009.9 - 0.0 - Mostly clear 10 - - - -
19/10:30pm 27.3 WSW 2 4 1010.3 - 0.0 - Mostly clear 10 - - - -
19/10:00pm 27.0 WSW 4 5 1010.3 - 0.0 - Mostly clear 10 - - - -
19/09:30pm 26.9 W 3 4 1009.9 - 0.0 - Mostly clear 10 - - - -
19/09:00pm 26.9 CALM 0 0 1009.5 R 0.0 - Cloudy 10 - - - -
19/08:30pm 27.3 CALM 0 0 1009.2 - 0.0 - Mostly clear 10 - - - -
19/08:00pm 27.0 CALM 0 0 1008.6 - 0.0 - Partly cloudy 10 - - - -
19/07:30pm 27.4 CALM 0 0 1008.3 - 0.0 - Mostly clear 10 - - - -
19/07:00pm 27.9 CALM 0 0 1008.0 - 0.0 - Mostly clear 10 - - - -
19/06:30pm 28.8 NE 1 4 1007.5 - 0.0 - Mostly clear 10 - - - -

Other Formats:

Comma delimited format used in spreadsheet applications
http://www.bom.gov.au/fwo/IDQ60701/IDQ60701.94287.axf

JavaScript Object Notation format (JSON) in row-major order
http://www.bom.gov.au/fwo/IDQ60701/IDQ60701.94287.json